Time;durP1;ratioP1;P1;durP2;ratioP2;P2;SDS_P1;SDS_P2;PMS_P1;PMS_P2;Temp;Humidity;BMP_temperature;BMP_pressure;BME280_temperature;BME280_humidity;BME280_pressure;Samples;Min_cycle;Max_cycle;Signal;HPM_P1;HPM_P2
2022/06/28 00:01:18;;;;;;;0.97;0.97;;;;;;;25.84;47.47;95348.69;5043210;28;20193;-63
2022/06/28 00:03:45;;;;;;;0.80;0.80;;;;;;;25.87;46.98;95338.09;5017677;28;20213;-64
2022/06/28 00:06:12;;;;;;;0.70;0.70;;;;;;;25.77;47.12;95337.75;5034147;28;20271;-62
2022/06/28 00:08:39;;;;;;;0.93;0.50;;;;;;;25.80;47.22;95342.47;5026211;28;20657;-63
2022/06/28 00:11:06;;;;;;;0.70;0.70;;;;;;;25.58;47.60;95340.28;5028072;28;20209;-62
2022/06/28 00:13:32;;;;;;;0.77;0.60;;;;;;;25.68;47.38;95345.97;5040580;28;20196;-63
2022/06/28 00:16:05;;;;;;;1.40;0.87;;;;;;;25.65;47.42;95349.34;5021495;28;20198;-63
2022/06/28 00:18:37;;;;;;;1.30;0.80;;;;;;;25.75;47.15;95340.78;5049662;28;20195;-63
2022/06/28 00:21:08;;;;;;;1.03;1.00;;;;;;;25.68;47.23;95350.53;5044265;28;20200;-62
2022/06/28 00:23:37;;;;;;;1.90;0.97;;;;;;;25.54;47.65;95350.91;5027947;28;20274;-62
2022/06/28 00:26:05;;;;;;;1.03;0.93;;;;;;;25.54;47.15;95345.56;5046208;28;20244;-63
2022/06/28 00:28:35;;;;;;;3.03;1.03;;;;;;;25.69;46.73;95347.50;5032810;28;20217;-63
2022/06/28 00:31:02;;;;;;;1.83;0.80;;;;;;;25.63;47.25;95348.88;5044769;28;20232;-63
2022/06/28 00:33:29;;;;;;;1.33;1.10;;;;;;;25.51;47.69;95350.81;5047912;28;20184;-62
2022/06/28 00:35:56;;;;;;;0.70;0.70;;;;;;;25.56;47.39;95347.88;5036740;28;20205;-62
2022/06/28 00:38:24;;;;;;;1.70;1.37;;;;;;;25.53;47.45;95343.22;5015126;28;20726;-62
2022/06/28 00:40:53;;;;;;;0.50;0.50;;;;;;;25.58;47.26;95340.28;5018367;28;20596;-64
2022/06/28 00:43:21;;;;;;;1.17;1.00;;;;;;;25.42;47.50;95344.78;5037465;28;20198;-63
2022/06/28 00:45:49;;;;;;;1.13;1.03;;;;;;;25.27;47.60;95345.44;5013910;28;20771;-62
2022/06/28 00:48:17;;;;;;;1.17;1.03;;;;;;;25.38;47.41;95343.91;5009928;28;20205;-63
2022/06/28 00:50:45;;;;;;;1.40;0.90;;;;;;;25.36;46.92;95340.72;5008294;28;20198;-62
2022/06/28 00:53:18;;;;;;;0.90;0.90;;;;;;;25.47;46.99;95353.41;5019730;28;20210;-62
2022/06/28 00:55:46;;;;;;;0.73;0.73;;;;;;;25.49;46.71;95345.00;5041872;28;20667;-63
2022/06/28 00:58:14;;;;;;;0.73;0.53;;;;;;;25.29;47.54;95349.34;5029025;28;20205;-63
2022/06/28 01:00:47;;;;;;;0.93;0.93;;;;;;;25.24;48.03;95346.09;5027831;28;20696;-62
2022/06/28 01:03:17;;;;;;;0.67;0.63;;;;;;;25.38;46.91;95346.59;5019487;28;20300;-63
2022/06/28 01:05:47;;;;;;;1.60;1.50;;;;;;;25.25;47.62;95348.47;5021860;28;20225;-62
2022/06/28 01:08:15;;;;;;;1.37;0.97;;;;;;;25.27;47.11;95346.22;5009326;28;20636;-62
2022/06/28 01:10:42;;;;;;;0.70;0.70;;;;;;;25.23;47.08;95352.59;5038719;28;20196;-63
2022/06/28 01:13:12;;;;;;;0.60;0.60;;;;;;;25.17;47.30;95351.25;5047662;28;20197;-62
2022/06/28 01:15:41;;;;;;;1.07;0.80;;;;;;;25.06;47.14;95346.34;5033718;28;20197;-63
2022/06/28 01:18:10;;;;;;;3.27;1.17;;;;;;;25.17;47.23;95351.25;5007812;28;20248;-63
2022/06/28 01:20:48;;;;;;;1.03;0.87;;;;;;;25.15;47.09;95348.91;5023003;28;20255;-63
2022/06/28 01:23:36;;;;;;;1.50;1.23;;;;;;;24.98;47.41;95343.78;5025814;28;20211;-62
2022/06/28 01:26:25;;;;;;;0.77;0.60;;;;;;;24.90;47.31;95348.13;5039259;28;20245;-64
2022/06/28 01:28:52;;;;;;;0.90;0.60;;;;;;;24.77;46.87;95341.19;5018175;28;20616;-62
2022/06/28 01:31:31;;;;;;;0.63;0.63;;;;;;;24.36;46.43;95311.84;5027556;28;20351;-63
2022/06/28 01:34:01;;;;;;;0.93;0.53;;;;;;;24.60;45.74;95338.69;5043116;28;20532;-64
2022/06/28 01:36:28;;;;;;;2.43;1.40;;;;;;;24.62;46.08;95336.44;5034240;28;20585;-63
2022/06/28 01:38:55;;;;;;;1.37;1.20;;;;;;;24.45;45.82;95335.88;5022617;28;20198;-64
2022/06/28 01:41:32;;;;;;;0.50;0.50;;;;;;;24.50;46.03;95341.78;5025250;28;20234;-63
2022/06/28 01:44:10;;;;;;;0.30;0.30;;;;;;;24.66;45.92;95348.06;5021327;28;20728;-63
2022/06/28 01:46:48;;;;;;;0.50;0.50;;;;;;;24.58;46.39;95340.91;5021761;28;20228;-62
2022/06/28 01:49:17;;;;;;;0.83;0.83;;;;;;;24.64;46.83;95344.94;5024511;28;20204;-64
2022/06/28 01:52:02;;;;;;;0.60;0.60;;;;;;;24.75;46.28;95338.06;5010798;28;20350;-64
2022/06/28 01:54:30;;;;;;;0.73;0.73;;;;;;;24.76;46.14;95334.25;5023827;28;20720;-63
2022/06/28 01:56:58;;;;;;;1.03;0.93;;;;;;;24.67;46.13;95330.88;5037099;28;20243;-63
2022/06/28 01:59:33;;;;;;;0.30;0.30;;;;;;;24.69;46.50;95331.31;5024975;28;20683;-64
2022/06/28 02:02:05;;;;;;;0.50;0.50;;;;;;;24.76;46.19;95336.16;5037462;28;20204;-62
2022/06/28 02:04:49;;;;;;;0.60;0.50;;;;;;;24.81;45.79;95339.41;5026689;28;20287;-64
2022/06/28 02:07:21;;;;;;;0.90;0.90;;;;;;;24.69;46.35;95331.31;5047970;28;20250;-62
2022/06/28 02:09:48;;;;;;;1.00;0.70;;;;;;;24.58;46.39;95314.09;5035060;28;20189;-63
2022/06/28 02:12:15;;;;;;;0.87;0.60;;;;;;;24.69;46.38;95335.91;5044407;28;20430;-62
2022/06/28 02:14:43;;;;;;;0.77;0.77;;;;;;;24.71;46.47;95337.16;5032166;28;20189;-63
2022/06/28 02:17:11;;;;;;;0.73;0.70;;;;;;;24.80;45.63;95335.16;5043914;28;20189;-64
2022/06/28 02:19:39;;;;;;;1.07;0.80;;;;;;;24.57;46.82;95334.00;5036523;28;20211;-63
2022/06/28 02:22:07;;;;;;;3.40;1.00;;;;;;;24.45;47.52;95336.63;5039747;28;20230;-63
2022/06/28 02:24:34;;;;;;;0.50;0.50;;;;;;;24.38;47.29;95347.09;5016288;28;20747;-64
2022/06/28 02:27:01;;;;;;;0.50;0.50;;;;;;;24.25;47.48;95348.19;5030443;28;20640;-63
2022/06/28 02:29:28;;;;;;;1.03;0.83;;;;;;;24.15;47.50;95347.81;5030442;28;20199;-63
2022/06/28 02:31:54;;;;;;;0.47;0.47;;;;;;;24.13;47.66;95337.44;5037725;28;20258;-63
2022/06/28 02:42:38;;;;;;;1.20;1.13;;;;;;;24.29;47.11;95343.75;5042893;28;20199;-63
2022/06/28 02:45:05;;;;;;;1.30;0.80;;;;;;;23.90;48.39;95341.56;5041125;28;20225;-63
2022/06/28 02:47:33;;;;;;;0.70;0.70;;;;;;;23.80;48.67;95341.94;5020892;28;20220;-63
2022/06/28 02:49:59;;;;;;;0.70;0.70;;;;;;;23.80;48.38;95347.31;5051360;28;20201;-63
2022/06/28 02:52:26;;;;;;;0.80;0.80;;;;;;;23.73;49.30;95347.06;5049576;28;20287;-63
2022/06/28 02:54:53;;;;;;;1.70;1.23;;;;;;;23.45;49.13;95349.47;5041315;28;20193;-63
2022/06/28 02:57:20;;;;;;;0.57;0.57;;;;;;;23.34;49.89;95339.47;5015634;28;20201;-62
2022/06/28 02:59:47;;;;;;;0.93;0.90;;;;;;;23.64;49.01;95343.66;5030076;28;20217;-63
2022/06/28 03:02:14;;;;;;;1.20;1.03;;;;;;;23.80;48.95;95331.25;5016354;28;20692;-63
2022/06/28 03:04:41;;;;;;;2.60;1.47;;;;;;;23.95;48.46;95336.00;5036608;28;20292;-63
2022/06/28 03:07:08;;;;;;;0.50;0.50;;;;;;;23.83;48.60;95317.22;5035271;28;20760;-65
2022/06/28 03:09:35;;;;;;;0.63;0.63;;;;;;;23.80;48.92;95331.25;5022771;28;20197;-64
2022/06/28 03:12:04;;;;;;;0.60;0.60;;;;;;;23.85;48.64;95328.38;5049606;28;20196;-64
2022/06/28 03:14:32;;;;;;;5.50;1.90;;;;;;;23.80;49.24;95333.94;5049730;28;20318;-63
2022/06/28 03:16:59;;;;;;;0.80;0.80;;;;;;;23.92;49.54;95334.00;5029402;28;20201;-63
2022/06/28 03:19:27;;;;;;;0.60;0.60;;;;;;;23.97;48.99;95328.44;5044638;28;20683;-64
2022/06/28 03:21:54;;;;;;;0.70;0.70;;;;;;;23.95;48.89;95333.31;5033059;28;20205;-62
2022/06/28 03:24:21;;;;;;;1.77;1.30;;;;;;;23.80;48.25;95309.84;5039665;28;20589;-63
2022/06/28 03:26:48;;;;;;;0.40;0.40;;;;;;;23.88;48.46;95330.41;5038101;28;20299;-63
2022/06/28 03:29:15;;;;;;;0.30;0.30;;;;;;;24.01;48.26;95332.06;5037692;28;20228;-63
2022/06/28 03:31:42;;;;;;;4.77;1.43;;;;;;;23.87;48.57;95332.28;5035226;28;20203;-63
2022/06/28 03:34:09;;;;;;;0.87;0.70;;;;;;;23.93;47.94;95336.34;5037251;28;20596;-62
2022/06/28 03:36:37;;;;;;;0.43;0.43;;;;;;;23.90;48.45;95330.88;5043039;28;20247;-62
2022/06/28 03:39:27;;;;;;;0.33;0.33;;;;;;;23.83;47.83;95331.38;5029720;28;20299;-63
2022/06/28 03:41:54;;;;;;;0.53;0.53;;;;;;;23.67;48.49;95332.28;5043020;28;20189;-64
2022/06/28 03:44:21;;;;;;;0.60;0.60;;;;;;;23.72;49.55;95329.44;5029049;28;20201;-64
2022/06/28 03:46:48;;;;;;;1.27;1.17;;;;;;;23.74;48.52;95332.56;5019998;28;20214;-63
2022/06/28 03:49:35;;;;;;;0.70;0.70;;;;;;;23.67;49.53;95343.00;5030555;28;20231;-63
2022/06/28 03:52:31;;;;;;;0.60;0.60;;;;;;;23.81;48.92;95341.63;5063764;28;20200;-63
2022/06/28 03:55:18;;;;;;;0.57;0.57;;;;;;;23.92;48.82;95350.06;5025112;28;20213;-64
2022/06/28 03:57:46;;;;;;;1.03;0.93;;;;;;;24.04;48.52;95352.81;5036825;28;20571;-64
2022/06/28 04:00:13;;;;;;;0.60;0.57;;;;;;;23.78;49.38;95354.88;5026135;28;20255;-64
2022/06/28 04:02:43;;;;;;;0.93;0.87;;;;;;;23.72;49.41;95361.56;5020027;28;20200;-63
2022/06/28 04:05:18;;;;;;;0.53;0.53;;;;;;;23.81;49.95;95364.94;5037887;28;20207;-64
2022/06/28 04:07:45;;;;;;;0.97;0.97;;;;;;;23.84;49.98;95356.25;5039244;28;20221;-63
2022/06/28 04:10:12;;;;;;;0.60;0.53;;;;;;;23.65;50.66;95359.38;5030309;28;20187;-63
2022/06/28 04:12:43;;;;;;;0.50;0.50;;;;;;;23.98;49.84;95362.91;5030816;28;20193;-64
2022/06/28 04:15:18;;;;;;;0.73;0.60;;;;;;;23.99;50.09;95371.72;5040766;28;20199;-63
2022/06/28 04:17:54;;;;;;;0.87;0.83;;;;;;;24.02;50.41;95371.09;5048194;28;20204;-64
2022/06/28 04:20:53;;;;;;;1.07;0.97;;;;;;;24.22;50.13;95375.63;5029006;28;20198;-63
2022/06/28 04:23:20;;;;;;;1.20;1.10;;;;;;;24.07;51.48;95374.34;5011817;28;20240;-62
2022/06/28 04:25:47;;;;;;;1.17;1.13;;;;;;;24.14;50.46;95373.84;5035803;28;20235;-63
2022/06/28 04:28:33;;;;;;;1.63;1.53;;;;;;;24.04;51.19;95379.59;5046163;28;20303;-63
2022/06/28 04:31:08;;;;;;;0.87;0.83;;;;;;;23.91;51.46;95383.28;5018331;28;20232;-63
2022/06/28 04:33:35;;;;;;;1.53;1.40;;;;;;;23.96;51.49;95378.50;5022981;28;20201;-66
2022/06/28 04:36:03;;;;;;;0.97;0.97;;;;;;;24.24;50.60;95389.47;5019852;28;20205;-65
2022/06/28 04:38:32;;;;;;;2.87;1.77;;;;;;;23.88;52.13;95378.59;5038434;28;20201;-65
2022/06/28 04:41:04;;;;;;;1.53;1.43;;;;;;;24.31;50.51;95381.69;5039888;28;20584;-66
2022/06/28 04:43:43;;;;;;;2.43;1.83;;;;;;;23.67;52.47;95375.09;5042214;28;20634;-68
2022/06/28 04:46:14;;;;;;;2.70;2.03;;;;;;;23.83;52.04;95381.47;5029710;28;20197;-65
2022/06/28 04:48:44;;;;;;;1.83;1.43;;;;;;;24.06;51.34;95382.72;5035345;28;20559;-64
2022/06/28 04:51:12;;;;;;;1.47;1.37;;;;;;;24.07;51.47;95378.91;5014753;28;20741;-64
2022/06/28 04:53:44;;;;;;;1.40;1.30;;;;;;;24.24;50.80;95378.78;5026941;28;20201;-66
2022/06/28 04:56:13;;;;;;;0.90;0.90;;;;;;;23.89;51.77;95385.50;5019852;28;20233;-65
2022/06/28 04:58:45;;;;;;;0.77;0.77;;;;;;;23.82;52.01;95372.66;5021865;28;20205;-65
2022/06/28 05:01:12;;;;;;;1.23;0.80;;;;;;;23.96;51.90;95393.78;5009734;28;20261;-65
2022/06/28 05:03:43;;;;;;;1.93;1.20;;;;;;;24.04;51.73;95390.28;5019184;28;20205;-65
2022/06/28 05:06:36;;;;;;;2.97;2.40;;;;;;;23.88;52.42;95392.75;5024145;28;20702;-63
2022/06/28 05:09:04;;;;;;;11.23;7.37;;;;;;;24.35;51.12;95389.84;5016278;28;20206;-64
2022/06/28 05:11:52;;;;;;;1.37;1.27;;;;;;;24.39;50.70;95386.19;5023802;28;20199;-65
2022/06/28 05:14:26;;;;;;;2.50;1.20;;;;;;;24.38;50.41;95378.50;5014356;28;20206;-66
2022/06/28 05:16:54;;;;;;;7.10;2.57;;;;;;;24.38;50.68;95383.84;5011964;28;20212;-65
2022/06/28 05:19:22;;;;;;;1.73;1.30;;;;;;;24.09;51.51;95376.69;5044226;28;20262;-64
2022/06/28 05:21:49;;;;;;;1.03;1.03;;;;;;;24.07;52.25;95386.94;5043377;28;20201;-64
2022/06/28 05:24:16;;;;;;;2.40;2.20;;;;;;;24.38;51.12;95381.94;5042088;28;20196;-67
2022/06/28 05:26:48;;;;;;;1.10;1.00;;;;;;;24.93;49.65;95376.94;5026130;28;20715;-67
2022/06/28 05:29:20;;;;;;;1.27;1.17;;;;;;;24.98;50.14;95376.72;5038954;28;20661;-66
2022/06/28 05:31:47;;;;;;;0.67;0.67;;;;;;;24.89;49.83;95373.38;5045081;28;20208;-67
2022/06/28 05:34:14;;;;;;;2.10;1.77;;;;;;;24.55;51.34;95373.72;5031238;28;20201;-66
2022/06/28 05:36:41;;;;;;;1.30;1.07;;;;;;;24.89;50.88;95378.72;5029270;28;20850;-71
2022/06/28 05:39:10;;;;;;;1.40;1.30;;;;;;;24.78;50.67;95368.78;5038797;28;20237;-69
2022/06/28 05:41:37;;;;;;;1.73;1.63;;;;;;;24.53;52.52;95375.97;5041677;28;20204;-69
2022/06/28 05:44:04;;;;;;;1.23;1.20;;;;;;;24.15;53.25;95379.94;5023332;28;20192;-67
2022/06/28 05:46:32;;;;;;;1.33;1.23;;;;;;;24.35;51.85;95379.91;5024841;28;20321;-70
2022/06/28 05:49:00;;;;;;;2.00;1.43;;;;;;;24.18;51.24;95380.06;5042299;28;20698;-70
2022/06/28 05:51:29;;;;;;;1.53;1.43;;;;;;;24.43;52.50;95387.09;5031057;28;20201;-69
2022/06/28 05:53:57;;;;;;;1.43;1.33;;;;;;;24.31;52.87;95389.72;5033299;28;20205;-68
2022/06/28 05:56:24;;;;;;;1.37;1.10;;;;;;;24.44;52.39;95387.88;5042723;28;20583;-69
2022/06/28 05:58:51;;;;;;;2.37;1.80;;;;;;;24.85;51.83;95385.88;5046101;28;20196;-68
2022/06/28 06:01:18;;;;;;;1.83;1.70;;;;;;;24.76;51.74;95395.91;5031113;28;20194;-70
2022/06/28 06:03:45;;;;;;;1.00;0.87;;;;;;;24.88;51.94;95401.31;5018157;28;20202;-68
2022/06/28 06:06:11;;;;;;;0.70;0.70;;;;;;;24.74;51.84;95394.69;5034962;28;20207;-70
2022/06/28 06:08:40;;;;;;;1.30;1.00;;;;;;;24.82;52.58;95389.22;5026867;28;20230;-68
2022/06/28 06:11:07;;;;;;;1.53;1.43;;;;;;;25.30;50.50;95395.72;5042926;28;20254;-70
2022/06/28 06:13:35;;;;;;;1.27;1.17;;;;;;;25.56;50.21;95396.19;5041214;28;20287;-68
2022/06/28 06:16:03;;;;;;;2.40;2.23;;;;;;;25.40;49.12;95392.63;5045633;28;20204;-68
2022/06/28 06:18:32;;;;;;;1.07;1.00;;;;;;;25.81;48.31;95381.59;5011287;28;20240;-68
2022/06/28 06:20:59;;;;;;;1.40;1.37;;;;;;;25.99;48.09;95377.53;5041520;28;20197;-69
2022/06/28 06:23:26;;;;;;;1.20;1.17;;;;;;;25.71;49.71;95374.03;5027480;28;20192;-69
2022/06/28 06:25:59;;;;;;;1.83;1.53;;;;;;;26.10;48.16;95384.00;5051101;28;20220;-68
2022/06/28 06:28:28;;;;;;;2.00;1.70;;;;;;;25.91;47.02;95381.91;5037532;28;20232;-68
2022/06/28 06:30:55;;;;;;;2.00;1.60;;;;;;;25.84;47.03;95376.34;5024048;28;20413;-66
2022/06/28 06:33:54;;;;;;;1.40;1.23;;;;;;;26.07;46.13;95373.97;5030121;28;20224;-69
2022/06/28 06:36:35;;;;;;;2.23;1.83;;;;;;;26.27;46.63;95361.44;5050122;28;20197;-69
2022/06/28 06:39:04;;;;;;;2.93;1.83;;;;;;;25.95;46.11;95349.78;5050655;28;20691;-69
2022/06/28 06:41:32;;;;;;;0.67;0.67;;;;;;;26.49;45.14;95353.63;5022327;28;20315;-69
2022/06/28 06:43:59;;;;;;;1.07;0.97;;;;;;;26.25;45.44;95358.31;5039290;28;20284;-69
2022/06/28 06:46:32;;;;;;;1.07;0.97;;;;;;;26.44;45.15;95359.22;5022118;28;20201;-68
2022/06/28 06:48:59;;;;;;;1.33;1.20;;;;;;;26.18;46.33;95358.91;5030686;28;20224;-68
2022/06/28 06:51:25;;;;;;;1.10;1.07;;;;;;;26.32;48.45;95348.53;5049314;28;20200;-69
2022/06/28 06:53:52;;;;;;;1.40;1.30;;;;;;;27.20;46.82;95341.94;5022559;28;20206;-68
2022/06/28 06:56:19;;;;;;;1.40;1.27;;;;;;;26.57;49.57;95341.16;5022830;28;20672;-69
2022/06/28 06:58:46;;;;;;;2.40;1.10;;;;;;;26.63;47.98;95343.22;5039993;28;20585;-69
2022/06/28 07:01:13;;;;;;;2.10;1.90;;;;;;;26.96;46.26;95335.63;5036746;28;20232;-68
2022/06/28 07:04:01;;;;;;;1.03;0.90;;;;;;;27.48;45.08;95329.16;5049249;28;20200;-67
2022/06/28 07:06:28;;;;;;;1.07;0.97;;;;;;;27.26;46.04;95337.84;5030472;28;20684;-68
2022/06/28 07:08:55;;;;;;;1.43;1.33;;;;;;;27.69;45.03;95329.59;5017488;28;20275;-67
2022/06/28 07:11:22;;;;;;;1.33;1.23;;;;;;;27.35;46.40;95331.19;5023219;28;20299;-70
2022/06/28 07:13:49;;;;;;;1.67;1.53;;;;;;;27.36;44.99;95327.34;5025442;28;20197;-68
2022/06/28 07:16:17;;;;;;;2.03;1.77;;;;;;;27.85;43.45;95317.63;5037978;28;20198;-68
2022/06/28 07:18:44;;;;;;;1.30;1.17;;;;;;;28.07;43.75;95329.63;5021377;28;20193;-69
2022/06/28 07:21:11;;;;;;;1.30;1.20;;;;;;;27.78;44.79;95327.47;5020556;28;20625;-69
2022/06/28 07:23:41;;;;;;;1.50;1.00;;;;;;;27.49;43.41;95325.31;5040510;28;20205;-68
2022/06/28 07:26:09;;;;;;;2.50;2.30;;;;;;;27.77;43.24;95325.94;5014005;28;20265;-70
2022/06/28 07:28:36;;;;;;;1.13;1.03;;;;;;;28.37;43.64;95327.91;5010523;28;20320;-67
2022/06/28 07:31:04;;;;;;;2.47;1.67;;;;;;;28.05;42.88;95326.50;5009455;28;20197;-69
2022/06/28 07:33:31;;;;;;;1.17;1.10;;;;;;;27.87;44.28;95336.91;5023884;28;20211;-69
2022/06/28 07:35:59;;;;;;;1.00;0.90;;;;;;;28.50;42.77;95323.88;5037054;28;20634;-68
2022/06/28 07:38:29;;;;;;;2.20;1.73;;;;;;;28.63;41.54;95319.91;5048540;28;20287;-68
2022/06/28 07:41:16;;;;;;;1.83;1.47;;;;;;;28.86;41.81;95328.81;5050075;28;20308;-68
2022/06/28 07:44:09;;;;;;;1.33;1.17;;;;;;;28.72;41.53;95339.34;5050420;28;20580;-68
2022/06/28 07:46:36;;;;;;;0.90;0.90;;;;;;;28.47;42.00;95332.69;5026667;28;20292;-69
2022/06/28 07:49:04;;;;;;;2.00;1.53;;;;;;;28.85;41.49;95348.81;5037986;28;20225;-67
2022/06/28 07:54:36;;;;;;;1.20;1.10;;;;;;;29.01;40.58;95339.81;5044221;28;20307;-68
2022/06/28 07:57:08;;;;;;;1.00;1.00;;;;;;;28.83;38.89;95345.69;5046131;28;20195;-67
2022/06/28 07:59:39;;;;;;;1.43;1.33;;;;;;;29.28;38.75;95333.31;5048781;28;20197;-69
2022/06/28 08:02:06;;;;;;;1.20;1.10;;;;;;;29.03;39.04;95341.03;5049394;28;20199;-70
2022/06/28 08:04:44;;;;;;;1.30;1.20;;;;;;;29.70;37.86;95323.16;5009639;28;20201;-66
2022/06/28 08:07:11;;;;;;;1.27;1.10;;;;;;;29.61;36.94;95334.22;5035957;28;20635;-69
2022/06/28 08:09:38;;;;;;;0.73;0.73;;;;;;;29.50;35.73;95324.41;5051084;28;20193;-69
2022/06/28 08:12:06;;;;;;;1.27;1.17;;;;;;;29.56;36.79;95306.75;5049270;28;20204;-68
2022/06/28 08:14:33;;;;;;;0.90;0.90;;;;;;;29.67;36.71;95321.94;5030619;28;20205;-68
2022/06/28 08:17:02;;;;;;;1.30;1.27;;;;;;;29.89;36.82;95315.69;5029137;28;20193;-68
2022/06/28 08:19:31;;;;;;;0.97;0.97;;;;;;;30.08;36.29;95317.44;5019853;28;20258;-67
2022/06/28 08:21:58;;;;;;;0.80;0.80;;;;;;;30.17;36.25;95317.94;5049125;28;20291;-70
2022/06/28 08:24:25;;;;;;;1.30;1.20;;;;;;;29.88;36.85;95313.34;5049116;28;20609;-68
2022/06/28 08:26:53;;;;;;;0.80;0.80;;;;;;;30.02;34.98;95320.88;5048687;28;20240;-69
2022/06/28 08:29:21;;;;;;;1.17;1.07;;;;;;;30.17;36.05;95315.22;5034684;28;20260;-67
2022/06/28 08:31:49;;;;;;;0.93;0.93;;;;;;;30.17;35.86;95309.81;5049085;28;20203;-67
2022/06/28 08:34:16;;;;;;;0.60;0.60;;;;;;;30.66;36.06;95321.19;5025173;28;20615;-67
2022/06/28 08:36:42;;;;;;;1.03;0.80;;;;;;;30.67;34.98;95311.16;5024492;28;20198;-68
2022/06/28 08:39:09;;;;;;;0.80;0.80;;;;;;;30.53;34.53;95317.19;5021831;28;20674;-67
2022/06/28 08:41:40;;;;;;;0.60;0.60;;;;;;;30.78;34.42;95315.47;5026942;28;20208;-68
2022/06/28 08:44:11;;;;;;;0.70;0.70;;;;;;;30.82;34.68;95312.88;5029799;28;20660;-68
2022/06/28 08:46:38;;;;;;;1.23;1.03;;;;;;;30.99;35.69;95322.25;5021574;28;20756;-68
2022/06/28 08:49:19;;;;;;;1.47;1.30;;;;;;;31.03;35.40;95313.03;5046294;28;20605;-67
2022/06/28 08:51:47;;;;;;;0.87;0.87;;;;;;;30.37;34.57;95305.81;5025899;28;20624;-67
2022/06/28 08:54:17;;;;;;;0.73;0.70;;;;;;;30.67;33.79;95311.94;5038262;28;20249;-67
2022/06/28 08:56:44;;;;;;;0.87;0.87;;;;;;;30.99;33.99;95306.78;5021284;28;20297;-68
2022/06/28 08:59:13;;;;;;;1.23;1.13;;;;;;;30.85;35.47;95306.69;5043376;28;20640;-69
2022/06/28 09:01:41;;;;;;;0.47;0.47;;;;;;;30.67;34.39;95303.81;5039554;28;20576;-69
2022/06/28 09:04:10;;;;;;;0.77;0.77;;;;;;;30.41;34.92;95303.94;5035960;28;20738;-68
2022/06/28 09:06:38;;;;;;;0.67;0.67;;;;;;;30.38;34.54;95306.63;5041117;28;20209;-69
2022/06/28 09:09:05;;;;;;;0.80;0.80;;;;;;;30.50;35.61;95314.44;5017036;28;20222;-68
2022/06/28 09:11:37;;;;;;;0.70;0.50;;;;;;;31.08;35.19;95303.75;5049588;28;20271;-66
2022/06/28 09:14:22;;;;;;;0.83;0.60;;;;;;;31.01;35.21;95314.53;5020924;28;20633;-68
2022/06/28 09:16:50;;;;;;;0.80;0.80;;;;;;;31.07;35.20;95308.41;5029732;28;20201;-67
2022/06/28 09:19:17;;;;;;;1.07;0.97;;;;;;;31.25;34.98;95303.91;5042504;28;20204;-66
2022/06/28 09:21:45;;;;;;;0.70;0.70;;;;;;;30.97;33.74;95309.09;5017416;28;20201;-68
2022/06/28 09:24:25;;;;;;;1.40;1.30;;;;;;;31.32;35.13;95308.56;5043632;28;20212;-68
2022/06/28 09:27:00;;;;;;;0.87;0.87;;;;;;;31.30;33.76;95305.47;5041441;28;20225;-67
2022/06/28 09:29:44;;;;;;;0.80;0.80;;;;;;;31.24;34.90;95302.34;5029651;28;20327;-68
2022/06/28 09:32:11;;;;;;;0.70;0.70;;;;;;;31.88;33.43;95297.31;5020018;28;20260;-68
2022/06/28 09:34:59;;;;;;;1.17;1.07;;;;;;;31.74;32.47;95298.00;5010222;28;20198;-68
2022/06/28 09:37:50;;;;;;;0.63;0.63;;;;;;;31.80;32.81;95299.22;5031589;28;20262;-69
2022/06/28 09:40:20;;;;;;;0.33;0.33;;;;;;;31.07;32.58;95304.94;5043011;28;20204;-70
2022/06/28 09:43:04;;;;;;;0.77;0.77;;;;;;;31.75;33.52;95294.16;5016697;28;20194;-69
2022/06/28 09:45:32;;;;;;;1.07;0.97;;;;;;;31.32;32.34;95286.91;5009687;28;20661;-67
2022/06/28 09:47:59;;;;;;;1.10;1.00;;;;;;;31.32;32.44;95293.13;5027772;28;20662;-68
2022/06/28 09:50:33;;;;;;;0.67;0.67;;;;;;;31.13;32.66;95289.91;5033683;28;20280;-69
2022/06/28 09:53:01;;;;;;;0.67;0.67;;;;;;;31.04;33.03;95281.31;5038059;28;20270;-67
2022/06/28 09:55:30;;;;;;;1.23;0.90;;;;;;;31.67;32.05;95279.00;5053072;28;20663;-69
2022/06/28 09:57:58;;;;;;;0.70;0.70;;;;;;;31.77;34.44;95275.56;5045909;28;20186;-68
2022/06/28 10:00:26;;;;;;;0.67;0.67;;;;;;;31.92;33.80;95284.56;5047225;28;20228;-69
2022/06/28 10:02:57;;;;;;;1.03;1.00;;;;;;;32.49;31.36;95284.38;5019236;28;20193;-70
2022/06/28 10:05:26;;;;;;;0.67;0.67;;;;;;;32.43;32.16;95274.28;5045856;28;20196;-67
2022/06/28 10:07:53;;;;;;;0.87;0.87;;;;;;;32.22;33.14;95275.00;5042000;28;20230;-70
2022/06/28 10:10:22;;;;;;;0.80;0.80;;;;;;;31.74;33.56;95284.47;5036333;28;20661;-68
2022/06/28 10:15:44;;;;;;;0.50;0.50;;;;;;;31.60;32.04;95262.72;5040171;28;20296;-68
2022/06/28 10:18:11;;;;;;;1.27;1.17;;;;;;;32.07;33.19;95273.41;5019256;28;20192;-67
2022/06/28 10:20:40;;;;;;;0.60;0.60;;;;;;;32.14;33.25;95269.91;5045386;28;20261;-69
2022/06/28 10:23:42;;;;;;;0.97;0.90;;;;;;;32.73;31.71;95267.34;5042861;28;20236;-66
2022/06/28 10:26:13;;;;;;;0.53;0.53;;;;;;;32.71;32.32;95269.66;5042180;28;20232;-69
2022/06/28 10:28:43;;;;;;;0.97;0.77;;;;;;;32.98;32.25;95261.13;5032132;28;20777;-69
2022/06/28 10:31:25;;;;;;;1.30;1.20;;;;;;;33.37;31.95;95261.88;5045255;28;20223;-70
2022/06/28 10:34:22;;;;;;;0.77;0.77;;;;;;;33.33;30.87;95261.09;5012875;28;20252;-67
2022/06/28 10:36:51;;;;;;;0.50;0.50;;;;;;;32.92;29.81;95249.13;5024680;28;20196;-67
2022/06/28 10:39:25;;;;;;;1.03;1.03;;;;;;;33.13;32.59;95249.09;5027750;28;20198;-68
2022/06/28 10:41:58;;;;;;;0.83;0.70;;;;;;;33.77;30.84;95245.06;5051312;28;20188;-66
2022/06/28 10:44:27;;;;;;;0.63;0.60;;;;;;;33.49;29.98;95253.31;5040091;28;20193;-67
2022/06/28 10:47:06;;;;;;;0.93;0.83;;;;;;;34.00;30.30;95256.25;5013848;28;20197;-68
2022/06/28 10:49:42;;;;;;;0.87;0.87;;;;;;;33.37;29.29;95251.00;5036329;28;20213;-67
2022/06/28 10:52:22;;;;;;;0.90;0.60;;;;;;;33.46;32.09;95251.41;5040313;28;20235;-67
2022/06/28 10:54:52;;;;;;;0.90;0.90;;;;;;;33.92;28.82;95243.84;5022126;28;20204;-70
2022/06/28 10:57:23;;;;;;;0.50;0.50;;;;;;;33.55;29.56;95249.03;5018193;28;20217;-67
2022/06/28 10:59:53;;;;;;;0.80;0.70;;;;;;;33.67;28.35;95241.22;5022298;28;20304;-66
2022/06/28 11:02:21;;;;;;;1.33;1.13;;;;;;;33.75;29.16;95236.53;5014341;28;20198;-67
2022/06/28 11:05:06;;;;;;;0.67;0.67;;;;;;;32.97;27.72;95227.81;5042096;28;20281;-69
2022/06/28 11:07:34;;;;;;;0.60;0.60;;;;;;;33.78;28.10;95224.88;5029148;28;20585;-67
2022/06/28 11:10:10;;;;;;;0.90;0.90;;;;;;;33.94;29.96;95214.31;5030256;28;20220;-70
2022/06/28 11:12:41;;;;;;;1.07;0.97;;;;;;;33.26;30.06;95214.94;5046883;28;20254;-69
2022/06/28 11:15:11;;;;;;;0.40;0.40;;;;;;;33.63;29.35;95220.69;5011900;28;20297;-68
2022/06/28 11:17:43;;;;;;;0.60;0.60;;;;;;;33.81;28.48;95210.50;5041381;28;20212;-66
2022/06/28 11:20:22;;;;;;;0.83;0.83;;;;;;;34.64;29.82;95208.44;5023299;28;20252;-68
2022/06/28 11:22:50;;;;;;;0.80;0.80;;;;;;;34.68;28.85;95208.41;5025513;28;20877;-65
2022/06/28 11:25:22;;;;;;;1.00;0.97;;;;;;;34.44;27.69;95204.72;5020364;28;20260;-67
2022/06/28 11:27:56;;;;;;;0.67;0.67;;;;;;;34.12;28.94;95220.47;5046947;28;20205;-68
2022/06/28 11:30:27;;;;;;;0.70;0.60;;;;;;;34.06;27.43;95219.31;5034026;28;20197;-68
2022/06/28 11:32:59;;;;;;;1.07;0.73;;;;;;;33.46;28.43;95222.28;5039388;28;20215;-69
2022/06/28 11:35:28;;;;;;;0.90;0.90;;;;;;;34.07;27.22;95225.53;5026692;28;20200;-66
2022/06/28 11:37:58;;;;;;;0.60;0.60;;;;;;;33.68;28.30;95220.25;5050791;28;20188;-68
2022/06/28 11:40:25;;;;;;;1.43;0.80;;;;;;;33.94;28.61;95219.75;5036799;28;20190;-69
2022/06/28 11:43:14;;;;;;;0.70;0.60;;;;;;;34.49;27.38;95217.88;5038499;28;20250;-67
2022/06/28 11:45:46;;;;;;;0.70;0.53;;;;;;;34.52;27.60;95228.00;5020299;28;20193;-67
2022/06/28 11:48:27;;;;;;;1.13;1.10;;;;;;;34.76;26.53;95220.03;5033006;28;20691;-67
2022/06/28 11:50:56;;;;;;;1.37;0.97;;;;;;;34.95;26.35;95222.22;5040776;28;20787;-69
2022/06/28 11:53:24;;;;;;;0.73;0.73;;;;;;;35.04;25.60;95219.78;5011144;28;20198;-69
2022/06/28 11:55:54;;;;;;;0.60;0.60;;;;;;;34.88;26.53;95222.25;5032536;28;20672;-67
2022/06/28 11:58:25;;;;;;;0.50;0.50;;;;;;;35.23;26.46;95225.44;5030064;28;20194;-68
2022/06/28 12:01:10;;;;;;;1.00;0.73;;;;;;;35.63;26.17;95229.31;5045011;28;20710;-67
2022/06/28 12:03:43;;;;;;;0.40;0.40;;;;;;;35.43;26.41;95231.09;5038873;28;20661;-68
2022/06/28 12:06:20;;;;;;;0.70;0.70;;;;;;;35.79;25.62;95226.78;5044552;28;20386;-68